Time;durP1;ratioP1;P1;durP2;ratioP2;P2;SDS_P1;SDS_P2;PMS_P1;PMS_P2;Temp;Humidity;BMP_temperature;BMP_pressure;BME280_temperature;BME280_humidity;BME280_pressure;Samples;Min_cycle;Max_cycle;Signal;HPM_P1;HPM_P2
2022/03/22 00:04:24;;;;;;;13.93;7.50;;;;;;;;;;10361892;28;20026;-66
2022/03/22 00:09:25;;;;;;;16.13;7.90;;;;;;;;;;10362102;28;20397;-66
2022/03/22 00:14:26;;;;;;;11.93;6.88;;;;;;;;;;10363467;28;20029;-67
2022/03/22 00:19:26;;;;;;;16.20;8.15;;;;;;;;;;10364412;28;20029;-67
2022/03/22 00:24:28;;;;;;;14.73;6.43;;;;;;;;;;10368785;28;20037;-66
2022/03/22 00:29:28;;;;;;;11.98;7.50;;;;;;;;;;10370359;28;20033;-68
2022/03/22 00:34:29;;;;;;;13.88;7.03;;;;;;;;;;10369448;28;20042;-67
2022/03/22 00:39:29;;;;;;;11.77;6.30;;;;;;;;;;10368736;28;20050;-67
2022/03/22 00:44:30;;;;;;;12.88;6.72;;;;;;;;;;10366723;28;20413;-67
2022/03/22 00:49:32;;;;;;;12.48;7.07;;;;;;;;;;10369835;28;20029;-66
2022/03/22 00:54:35;;;;;;;12.10;6.60;;;;;;;;;;10350905;28;20253;-68
2022/03/22 01:04:56;;;;;;;;;;;;;;;;;;10363592;28;20022;-67
2022/03/22 01:09:56;;;;;;;10.65;6.60;;;;;;;;;;10368932;28;19929;-65
2022/03/22 01:14:57;;;;;;;10.68;5.63;;;;;;;;;;10367858;28;20022;-65
2022/03/22 01:19:58;;;;;;;12.07;5.90;;;;;;;;;;10362288;28;20454;-66
2022/03/22 01:24:59;;;;;;;10.77;6.13;;;;;;;;;;10362000;28;20516;-66
2022/03/22 01:30:00;;;;;;;12.98;6.60;;;;;;;;;;10368185;28;20542;-66
2022/03/22 01:35:03;;;;;;;9.48;5.75;;;;;;;;;;10360458;28;20022;-64
2022/03/22 01:40:07;;;;;;;11.43;5.78;;;;;;;;;;10367862;28;20150;-66
2022/03/22 01:45:09;;;;;;;12.65;6.20;;;;;;;;;;10358225;28;20085;-67
2022/03/22 01:50:14;;;;;;;9.98;5.70;;;;;;;;;;10367456;28;20430;-65
2022/03/22 01:55:19;;;;;;;9.88;5.72;;;;;;;;;;10367153;28;20121;-67
2022/03/22 02:00:21;;;;;;;13.48;5.90;;;;;;;;;;10369033;28;20482;-66
2022/03/22 02:10:41;;;;;;;13.63;6.22;;;;;;;;;;10352228;28;20417;-67
2022/03/22 02:15:45;;;;;;;17.95;6.28;;;;;;;;;;10366051;28;20030;-67
2022/03/22 02:20:47;;;;;;;10.55;5.28;;;;;;;;;;10366774;28;20030;-62
2022/03/22 02:25:49;;;;;;;11.15;4.95;;;;;;;;;;10356996;28;20034;-67
2022/03/22 02:30:50;;;;;;;13.20;6.78;;;;;;;;;;10368413;28;20038;-67
2022/03/22 02:35:51;;;;;;;10.15;6.18;;;;;;;;;;10367132;28;20389;-66
2022/03/22 02:40:51;;;;;;;9.52;5.45;;;;;;;;;;10367644;28;20030;-66
2022/03/22 02:45:52;;;;;;;11.50;5.82;;;;;;;;;;10367428;28;20029;-66
2022/03/22 02:50:53;;;;;;;8.95;5.57;;;;;;;;;;10366970;28;20466;-66
2022/03/22 02:55:53;;;;;;;8.55;5.70;;;;;;;;;;10365160;28;20132;-67
2022/03/22 03:00:54;;;;;;;8.07;5.10;;;;;;;;;;10367148;28;20037;-67
2022/03/22 03:05:55;;;;;;;7.60;4.85;;;;;;;;;;10363109;28;20085;-68
2022/03/22 03:10:56;;;;;;;9.25;4.47;;;;;;;;;;10366870;28;20041;-68
2022/03/22 03:15:56;;;;;;;9.35;4.90;;;;;;;;;;10361599;28;20356;-69
2022/03/22 03:20:57;;;;;;;6.20;4.50;;;;;;;;;;10366491;28;20500;-67
2022/03/22 03:25:58;;;;;;;8.60;5.00;;;;;;;;;;10359883;28;20038;-68
2022/03/22 03:30:59;;;;;;;7.93;4.47;;;;;;;;;;10365752;28;20034;-66
2022/03/22 03:36:00;;;;;;;8.38;4.75;;;;;;;;;;10359185;28;20030;-66
2022/03/22 03:51:38;;;;;;;;;;;;;;;;;;10366852;28;20421;-67
2022/03/22 03:56:39;;;;;;;7.47;4.32;;;;;;;;;;10357973;28;19918;-68
2022/03/22 04:01:39;;;;;;;6.55;4.60;;;;;;;;;;10363415;28;20026;-67
2022/03/22 04:06:40;;;;;;;7.05;4.10;;;;;;;;;;10360134;28;20030;-67
2022/03/22 04:11:42;;;;;;;5.43;3.88;;;;;;;;;;10364776;28;20030;-67
2022/03/22 04:16:43;;;;;;;8.73;4.65;;;;;;;;;;10365768;28;20133;-68
2022/03/22 04:21:45;;;;;;;7.90;3.97;;;;;;;;;;10365092;28;20049;-67
2022/03/22 04:26:46;;;;;;;5.70;4.00;;;;;;;;;;10357030;28;20034;-66
2022/03/22 04:37:12;;;;;;;6.28;4.30;;;;;;;;;;10348556;28;20046;-67
2022/03/22 04:42:14;;;;;;;6.30;4.20;;;;;;;;;;10365229;28;20033;-68
2022/03/22 04:47:14;;;;;;;7.15;4.45;;;;;;;;;;10364558;28;20030;-67
2022/03/22 04:57:34;;;;;;;9.32;4.30;;;;;;;;;;10364312;28;20049;-68
2022/03/22 05:02:35;;;;;;;6.40;4.13;;;;;;;;;;10368124;28;20030;-65
2022/03/22 05:07:35;;;;;;;5.18;3.83;;;;;;;;;;10368768;28;20062;-67
2022/03/22 05:12:40;;;;;;;6.90;4.72;;;;;;;;;;10371333;28;20038;-67
2022/03/22 05:17:40;;;;;;;8.15;4.68;;;;;;;;;;10370608;28;20316;-66
2022/03/22 05:22:42;;;;;;;10.90;4.65;;;;;;;;;;10371744;28;20328;-67
2022/03/22 05:27:43;;;;;;;4.60;3.65;;;;;;;;;;10370256;28;20060;-65
2022/03/22 05:32:43;;;;;;;5.97;3.72;;;;;;;;;;10371312;28;20087;-66
2022/03/22 05:37:44;;;;;;;7.30;4.35;;;;;;;;;;10363568;28;20374;-66
2022/03/22 05:42:44;;;;;;;5.40;3.83;;;;;;;;;;10358204;28;20038;-66
2022/03/22 05:47:45;;;;;;;7.03;3.90;;;;;;;;;;10370082;28;20045;-67
2022/03/22 05:52:49;;;;;;;7.63;4.20;;;;;;;;;;10369784;28;20041;-65
2022/03/22 05:57:50;;;;;;;7.97;4.18;;;;;;;;;;10369226;28;20069;-66
2022/03/22 06:02:50;;;;;;;4.63;3.90;;;;;;;;;;10369563;28;20421;-65
2022/03/22 06:07:51;;;;;;;4.90;3.42;;;;;;;;;;10368489;28;20289;-66
2022/03/22 06:12:57;;;;;;;5.07;3.67;;;;;;;;;;10366317;28;20161;-66
2022/03/22 06:18:04;;;;;;;4.93;3.28;;;;;;;;;;10368300;28;20030;-66
2022/03/22 06:23:08;;;;;;;5.35;3.50;;;;;;;;;;10367498;28;20448;-64
2022/03/22 06:28:10;;;;;;;5.85;3.88;;;;;;;;;;10368250;28;20366;-63
2022/03/22 06:33:16;;;;;;;6.15;3.88;;;;;;;;;;10358978;28;20038;-65
2022/03/22 06:38:18;;;;;;;5.25;3.63;;;;;;;;;;10367935;28;20030;-67
2022/03/22 06:43:20;;;;;;;4.95;3.30;;;;;;;;;;10361021;28;20041;-69
2022/03/22 06:48:22;;;;;;;5.30;3.45;;;;;;;;;;10366022;28;20068;-68
2022/03/22 06:53:22;;;;;;;7.38;3.80;;;;;;;;;;10359803;28;20452;-72
2022/03/22 06:58:24;;;;;;;10.27;3.90;;;;;;;;;;10366142;28;20072;-74
2022/03/22 07:03:26;;;;;;;10.68;3.33;;;;;;;;;;10366701;28;20038;-66
2022/03/22 07:08:27;;;;;;;9.60;4.07;;;;;;;;;;10365886;28;20045;-66
2022/03/22 07:13:30;;;;;;;6.88;3.50;;;;;;;;;;10363704;28;20398;-66
2022/03/22 07:18:30;;;;;;;4.90;3.47;;;;;;;;;;10366302;28;20491;-67
2022/03/22 07:23:31;;;;;;;5.93;3.78;;;;;;;;;;10365687;28;20037;-67
2022/03/22 07:28:32;;;;;;;14.10;4.40;;;;;;;;;;10365756;28;20041;-66
2022/03/22 07:33:33;;;;;;;17.05;4.68;;;;;;;;;;10361642;28;20041;-68
2022/03/22 07:38:33;;;;;;;14.38;4.65;;;;;;;;;;10361573;28;20227;-64
2022/03/22 07:43:35;;;;;;;16.10;5.22;;;;;;;;;;10362299;28;20062;-67
2022/03/22 07:48:36;;;;;;;20.13;5.15;;;;;;;;;;10361772;28;20470;-70
2022/03/22 07:53:36;;;;;;;18.45;5.47;;;;;;;;;;10350251;28;20640;-64
2022/03/22 07:58:38;;;;;;;10.88;5.15;;;;;;;;;;10364183;28;20049;-65
2022/03/22 08:03:38;;;;;;;21.08;6.35;;;;;;;;;;10362652;28;20030;-63
2022/03/22 08:08:43;;;;;;;11.85;5.20;;;;;;;;;;10364724;28;20057;-63
2022/03/22 08:13:43;;;;;;;12.27;5.72;;;;;;;;;;10362447;28;20040;-69
2022/03/22 08:18:44;;;;;;;12.05;5.47;;;;;;;;;;10357360;28;20030;-71
2022/03/22 08:23:45;;;;;;;18.05;5.10;;;;;;;;;;10363798;28;20022;-71
2022/03/22 08:28:46;;;;;;;11.93;5.20;;;;;;;;;;10332735;28;20069;-70
2022/03/22 08:33:47;;;;;;;9.60;5.00;;;;;;;;;;10369970;28;20038;-69
2022/03/22 08:38:48;;;;;;;11.18;5.35;;;;;;;;;;10373180;28;20037;-64
2022/03/22 08:43:49;;;;;;;15.65;5.40;;;;;;;;;;10372481;28;20049;-71
2022/03/22 08:48:52;;;;;;;18.00;5.63;;;;;;;;;;10372182;28;20471;-70
2022/03/22 08:53:54;;;;;;;25.83;5.70;;;;;;;;;;10364547;28;20028;-70
2022/03/22 08:58:54;;;;;;;12.40;5.63;;;;;;;;;;10371284;28;20468;-63
2022/03/22 09:09:14;;;;;;;24.63;7.15;;;;;;;;;;10370412;28;20034;-68
2022/03/22 09:14:15;;;;;;;24.95;5.68;;;;;;;;;;10371047;28;20026;-64
2022/03/22 09:19:15;;;;;;;15.90;5.20;;;;;;;;;;10370604;28;20069;-65
2022/03/22 09:24:16;;;;;;;10.88;5.60;;;;;;;;;;10362591;28;20033;-68
2022/03/22 09:29:17;;;;;;;20.27;5.55;;;;;;;;;;10370792;28;20040;-67
2022/03/22 09:34:17;;;;;;;15.38;5.50;;;;;;;;;;10370560;28;20033;-69
2022/03/22 09:39:20;;;;;;;7.40;5.38;;;;;;;;;;10370952;28;20425;-68
2022/03/22 09:44:20;;;;;;;6.78;5.03;;;;;;;;;;10369875;28;20061;-69
2022/03/22 09:49:21;;;;;;;7.40;5.20;;;;;;;;;;10369804;28;20481;-67
2022/03/22 09:54:22;;;;;;;10.05;5.30;;;;;;;;;;10369693;28;20034;-68
2022/03/22 09:59:23;;;;;;;9.63;5.47;;;;;;;;;;10366265;28;20116;-64
2022/03/22 10:04:35;;;;;;;12.48;5.38;;;;;;;;;;10362741;28;20030;-64
2022/03/22 10:09:39;;;;;;;12.52;5.75;;;;;;;;;;10361605;28;20034;-66
2022/03/22 10:14:41;;;;;;;8.38;5.28;;;;;;;;;;10367297;28;20120;-65
2022/03/22 10:19:48;;;;;;;24.48;6.00;;;;;;;;;;10367659;28;20042;-65
2022/03/22 10:24:52;;;;;;;10.95;5.22;;;;;;;;;;10367497;28;20026;-63
2022/03/22 10:29:57;;;;;;;12.18;5.45;;;;;;;;;;10362957;28;20493;-68
2022/03/22 10:35:10;;;;;;;9.18;4.93;;;;;;;;;;10366493;28;20535;-63
2022/03/22 10:40:30;;;;;;;13.77;5.68;;;;;;;;;;10366414;28;20042;-64
2022/03/22 10:45:48;;;;;;;18.40;6.20;;;;;;;;;;10364739;28;20116;-64
2022/03/22 10:50:50;;;;;;;8.57;5.13;;;;;;;;;;10367325;28;20464;-63
2022/03/22 10:55:51;;;;;;;8.60;5.28;;;;;;;;;;10366337;28;20120;-69
2022/03/22 11:00:53;;;;;;;13.65;5.22;;;;;;;;;;10365764;28;20608;-68
2022/03/22 11:05:57;;;;;;;12.68;5.35;;;;;;;;;;10360637;28;20022;-65
2022/03/22 11:10:58;;;;;;;9.93;5.13;;;;;;;;;;10365411;28;20045;-71
2022/03/22 11:15:59;;;;;;;10.15;6.10;;;;;;;;;;10358243;28;20405;-69
2022/03/22 11:21:03;;;;;;;11.80;6.00;;;;;;;;;;10346664;28;20417;-71
2022/03/22 11:26:13;;;;;;;13.15;5.72;;;;;;;;;;10362022;28;20040;-69
2022/03/22 11:31:16;;;;;;;9.35;5.63;;;;;;;;;;10363603;28;20038;-70
2022/03/22 11:36:25;;;;;;;13.82;5.88;;;;;;;;;;10366250;28;20390;-71
2022/03/22 11:47:17;;;;;;;16.33;5.22;;;;;;;;;;10361508;28;20072;-71
2022/03/22 11:52:21;;;;;;;14.00;5.30;;;;;;;;;;10365731;28;20125;-70
2022/03/22 11:57:22;;;;;;;9.68;5.25;;;;;;;;;;10364986;28;20410;-71
2022/03/22 12:02:34;;;;;;;15.65;5.50;;;;;;;;;;10365281;28;20061;-71
2022/03/22 12:07:37;;;;;;;13.07;5.35;;;;;;;;;;10364946;28;20095;-70
2022/03/22 12:12:48;;;;;;;10.60;5.43;;;;;;;;;;10371585;28;20041;-69
2022/03/22 12:17:50;;;;;;;15.02;5.82;;;;;;;;;;10365139;28;20040;-70
2022/03/22 12:22:59;;;;;;;12.43;5.20;;;;;;;;;;10363428;28;20038;-64
2022/03/22 12:28:09;;;;;;;19.98;5.78;;;;;;;;;;10369158;28;20033;-65
2022/03/22 12:33:18;;;;;;;9.40;5.32;;;;;;;;;;10371800;28;20042;-63
2022/03/22 12:38:19;;;;;;;8.35;4.88;;;;;;;;;;10364901;28;20470;-63
2022/03/22 12:43:20;;;;;;;12.18;5.50;;;;;;;;;;10370707;28;20030;-65
2022/03/22 12:48:21;;;;;;;12.00;5.43;;;;;;;;;;10369867;28;20042;-69
2022/03/22 12:53:22;;;;;;;9.75;5.60;;;;;;;;;;10368352;28;20065;-64
2022/03/22 12:58:28;;;;;;;17.30;5.97;;;;;;;;;;10368516;28;20046;-66
2022/03/22 13:03:29;;;;;;;17.42;6.22;;;;;;;;;;10369394;28;20189;-67
2022/03/22 13:11:26;;;;;;;12.68;5.18;;;;;;;;;;10367481;28;20037;-65
2022/03/22 13:19:10;;;;;;;11.77;5.15;;;;;;;;;;10369383;28;20113;-70
2022/03/22 13:24:17;;;;;;;17.05;5.28;;;;;;;;;;10359656;28;20034;-66
2022/03/22 13:29:19;;;;;;;13.20;5.22;;;;;;;;;;10362639;28;20030;-68
2022/03/22 13:34:25;;;;;;;13.73;5.35;;;;;;;;;;10361242;28;20477;-64
2022/03/22 13:39:25;;;;;;;10.25;5.18;;;;;;;;;;10368451;28;20409;-64
2022/03/22 13:44:27;;;;;;;10.20;5.10;;;;;;;;;;10367558;28;20026;-66
2022/03/22 13:49:36;;;;;;;9.32;5.13;;;;;;;;;;10367503;28;20481;-67
2022/03/22 13:54:45;;;;;;;10.50;5.15;;;;;;;;;;10366788;28;20448;-65
2022/03/22 13:59:45;;;;;;;;;;;;;;;;;;10364800;28;20042;-65
2022/03/22 14:04:46;;;;;;;10.88;4.80;;;;;;;;;;10365163;28;19917;-65
2022/03/22 14:09:47;;;;;;;17.40;4.90;;;;;;;;;;10364029;28;20481;-66
2022/03/22 14:14:48;;;;;;;9.85;4.80;;;;;;;;;;10365797;28;20493;-65
2022/03/22 14:19:48;;;;;;;17.92;5.07;;;;;;;;;;10366540;28;20030;-71
2022/03/22 14:24:50;;;;;;;15.63;4.93;;;;;;;;;;10366531;28;20029;-65
2022/03/22 14:29:52;;;;;;;11.13;4.90;;;;;;;;;;10365490;28;20449;-67
2022/03/22 14:40:13;;;;;;;18.02;5.20;;;;;;;;;;10360388;28;20030;-65
2022/03/22 14:45:13;;;;;;;16.33;4.80;;;;;;;;;;10364118;28;20021;-63
2022/03/22 14:50:15;;;;;;;9.75;5.30;;;;;;;;;;10367132;28;20026;-69
2022/03/22 14:55:17;;;;;;;13.30;5.07;;;;;;;;;;10366540;28;20067;-63
2022/03/22 15:00:18;;;;;;;9.35;4.65;;;;;;;;;;10366181;28;20033;-71
2022/03/22 15:05:34;;;;;;;8.50;4.47;;;;;;;;;;10364567;28;20038;-70
2022/03/22 15:10:44;;;;;;;15.00;5.45;;;;;;;;;;10363858;28;20413;-67
2022/03/22 15:15:45;;;;;;;16.60;4.90;;;;;;;;;;10363842;28;20038;-68
2022/03/22 15:20:45;;;;;;;12.93;5.63;;;;;;;;;;10364146;28;20033;-68
2022/03/22 15:25:48;;;;;;;8.65;5.38;;;;;;;;;;10360375;28;20026;-69
2022/03/22 15:30:50;;;;;;;19.40;6.40;;;;;;;;;;10362244;28;20026;-72
2022/03/22 15:35:50;;;;;;;9.45;5.07;;;;;;;;;;10363187;28;20607;-69
2022/03/22 15:40:52;;;;;;;16.17;5.80;;;;;;;;;;10356927;28;20064;-70
2022/03/22 15:45:53;;;;;;;15.73;5.38;;;;;;;;;;10363488;28;20381;-65
2022/03/22 15:50:53;;;;;;;11.50;5.55;;;;;;;;;;10326881;28;20034;-64
2022/03/22 15:55:54;;;;;;;9.20;5.38;;;;;;;;;;10364691;28;20041;-71
2022/03/22 16:00:55;;;;;;;11.15;6.00;;;;;;;;;;10365452;28;20030;-63
2022/03/22 16:05:55;;;;;;;11.13;6.20;;;;;;;;;;10362782;28;20038;-63
2022/03/22 16:10:56;;;;;;;14.88;5.63;;;;;;;;;;10364109;28;20033;-63
2022/03/22 16:15:57;;;;;;;15.52;5.80;;;;;;;;;;10362756;28;20389;-63
2022/03/22 16:20:59;;;;;;;10.77;5.38;;;;;;;;;;10361076;28;20030;-64
2022/03/22 16:26:01;;;;;;;19.25;5.93;;;;;;;;;;10362186;28;20022;-64
2022/03/22 16:31:02;;;;;;;12.35;6.18;;;;;;;;;;10363043;28;20068;-67
2022/03/22 16:41:23;;;;;;;9.43;4.97;;;;;;;;;;10363286;28;20030;-71
2022/03/22 16:46:30;;;;;;;10.70;5.43;;;;;;;;;;10359847;28;20030;-64
2022/03/22 16:51:30;;;;;;;9.00;5.47;;;;;;;;;;10346400;28;20274;-64
2022/03/22 16:56:31;;;;;;;8.98;5.22;;;;;;;;;;10354126;28;20316;-63
2022/03/22 17:01:33;;;;;;;9.88;5.03;;;;;;;;;;10344653;28;20444;-65
2022/03/22 17:06:34;;;;;;;11.23;5.03;;;;;;;;;;10359973;28;20037;-63
2022/03/22 17:11:38;;;;;;;8.52;5.10;;;;;;;;;;10347373;28;20040;-63
2022/03/22 17:16:40;;;;;;;8.10;4.85;;;;;;;;;;10360463;28;20040;-64
2022/03/22 17:21:40;;;;;;;13.27;5.07;;;;;;;;;;10361950;28;20478;-69
2022/03/22 17:26:41;;;;;;;9.00;5.13;;;;;;;;;;10361375;28;20088;-63
2022/03/22 17:31:42;;;;;;;10.68;5.18;;;;;;;;;;10359823;28;20057;-71
2022/03/22 17:36:42;;;;;;;9.00;4.97;;;;;;;;;;10358575;28;20497;-67
2022/03/22 17:41:43;;;;;;;11.65;5.15;;;;;;;;;;10360834;28;20032;-69
2022/03/22 17:46:43;;;;;;;13.55;5.20;;;;;;;;;;10361326;28;20096;-64
2022/03/22 17:51:44;;;;;;;8.93;5.18;;;;;;;;;;10350426;28;20038;-72
2022/03/22 17:56:45;;;;;;;11.80;5.05;;;;;;;;;;10355008;28;20058;-60
2022/03/22 18:01:45;;;;;;;25.30;5.57;;;;;;;;;;10360393;28;20029;-74
2022/03/22 18:06:46;;;;;;;12.32;5.28;;;;;;;;;;10354158;28;20030;-66
2022/03/22 18:11:52;;;;;;;14.50;4.68;;;;;;;;;;10357826;28;20052;-58
2022/03/22 18:16:53;;;;;;;7.95;4.63;;;;;;;;;;10367589;28;20087;-60
2022/03/22 18:21:53;;;;;;;10.68;4.90;;;;;;;;;;10365161;28;20061;-74
2022/03/22 18:26:54;;;;;;;12.75;5.03;;;;;;;;;;10347375;28;20549;-70
2022/03/22 18:31:55;;;;;;;10.27;4.80;;;;;;;;;;10362181;28;20124;-74
2022/03/22 18:36:55;;;;;;;9.90;4.57;;;;;;;;;;10363118;28;20481;-70
2022/03/22 18:41:57;;;;;;;11.40;4.60;;;;;;;;;;10357854;28;20034;-73
2022/03/22 18:46:57;;;;;;;15.93;4.93;;;;;;;;;;10359261;28;20037;-74
2022/03/22 18:52:07;;;;;;;11.35;5.05;;;;;;;;;;10365247;28;20029;-74
2022/03/22 18:57:08;;;;;;;9.52;4.70;;;;;;;;;;10385622;23;20509;-49
2022/03/22 19:02:09;;;;;;;8.07;4.68;;;;;;;;;;10406717;28;20029;-48
2022/03/22 19:07:11;;;;;;;12.75;5.32;;;;;;;;;;10364018;28;20030;-47
2022/03/22 19:12:11;;;;;;;9.75;5.03;;;;;;;;;;10341380;28;20265;-47
2022/03/22 19:22:31;;;;;;;9.10;5.00;;;;;;;;;;10358760;28;20023;-48
2022/03/22 19:27:33;;;;;;;8.40;5.32;;;;;;;;;;10364972;28;20494;-47
2022/03/22 19:37:59;;;;;;;17.13;5.43;;;;;;;;;;10351367;28;20108;-47
2022/03/22 19:42:59;;;;;;;11.25;5.03;;;;;;;;;;10354855;28;20014;-48
2022/03/22 19:48:01;;;;;;;9.18;5.15;;;;;;;;;;10339475;28;20029;-47
2022/03/22 19:53:01;;;;;;;8.85;5.25;;;;;;;;;;10336774;28;20077;-47
2022/03/22 19:58:03;;;;;;;7.55;4.90;;;;;;;;;;10341576;28;20046;-47
2022/03/22 20:03:03;;;;;;;19.00;5.80;;;;;;;;;;10329053;28;20050;-46
2022/03/22 20:08:04;;;;;;;19.45;6.15;;;;;;;;;;10336310;28;20438;-47
2022/03/22 20:13:05;;;;;;;20.05;5.78;;;;;;;;;;10348178;28;20069;-47
2022/03/22 20:18:09;;;;;;;26.42;6.35;;;;;;;;;;10354341;28;20517;-47
2022/03/22 20:23:10;;;;;;;15.07;5.97;;;;;;;;;;10348489;28;20084;-47
2022/03/22 20:28:11;;;;;;;11.98;5.90;;;;;;;;;;10355194;28;20033;-47
2022/03/22 20:33:12;;;;;;;13.45;5.72;;;;;;;;;;10378824;28;20044;-47
2022/03/22 20:38:13;;;;;;;16.08;5.88;;;;;;;;;;10371797;28;20026;-47
2022/03/22 20:43:15;;;;;;;12.63;5.70;;;;;;;;;;10371082;28;20493;-47
2022/03/22 20:48:16;;;;;;;17.23;5.40;;;;;;;;;;10371755;28;20026;-47
2022/03/22 20:53:18;;;;;;;14.25;5.82;;;;;;;;;;10343420;28;20041;-54
2022/03/22 21:03:38;;;;;;;11.35;5.40;;;;;;;;;;10335139;28;20038;-47
2022/03/22 21:08:39;;;;;;;12.10;5.05;;;;;;;;;;10333190;28;20042;-47
2022/03/22 21:13:40;;;;;;;10.10;5.28;;;;;;;;;;10328030;28;20065;-47
2022/03/22 21:18:42;;;;;;;11.73;5.57;;;;;;;;;;10325179;28;20441;-47
2022/03/22 21:23:42;;;;;;;14.57;5.47;;;;;;;;;;10338198;28;20031;-47
2022/03/22 21:28:43;;;;;;;13.18;5.60;;;;;;;;;;10338441;28;20030;-47
2022/03/22 21:33:44;;;;;;;14.35;5.22;;;;;;;;;;10344882;28;20250;-47
2022/03/22 21:38:44;;;;;;;11.15;5.22;;;;;;;;;;10344642;28;20033;-47
2022/03/22 21:43:46;;;;;;;11.13;5.53;;;;;;;;;;10349135;28;20116;-47
2022/03/22 21:48:46;;;;;;;15.40;5.32;;;;;;;;;;10337524;28;20033;-47
2022/03/22 21:53:49;;;;;;;16.77;4.88;;;;;;;;;;10345173;28;20034;-46
2022/03/22 21:58:50;;;;;;;21.30;6.03;;;;;;;;;;10341220;28;20038;-47
2022/03/22 22:03:51;;;;;;;13.60;5.63;;;;;;;;;;10340673;28;20549;-47
2022/03/22 22:08:52;;;;;;;19.23;6.25;;;;;;;;;;10342495;28;20057;-47
2022/03/22 22:13:52;;;;;;;18.70;5.80;;;;;;;;;;10370568;28;20085;-47
2022/03/22 22:18:53;;;;;;;13.98;6.13;;;;;;;;;;10360327;28;20080;-47
2022/03/22 22:23:54;;;;;;;24.35;5.70;;;;;;;;;;10368476;28;20491;-48
2022/03/22 22:28:55;;;;;;;11.13;5.70;;;;;;;;;;10358936;28;20030;-47
2022/03/22 22:34:01;;;;;;;20.60;5.68;;;;;;;;;;10368346;28;20300;-48
2022/03/22 22:39:03;;;;;;;14.90;6.43;;;;;;;;;;10362960;28;20056;-47
2022/03/22 22:44:04;;;;;;;12.45;5.72;;;;;;;;;;10369140;28;20034;-47
2022/03/22 22:49:05;;;;;;;17.92;6.20;;;;;;;;;;10363384;28;20186;-47
2022/03/22 22:54:06;;;;;;;13.07;5.97;;;;;;;;;;10366166;28;20407;-47
2022/03/22 22:59:06;;;;;;;13.63;6.38;;;;;;;;;;10366509;28;20042;-48
2022/03/22 23:04:11;;;;;;;18.58;7.30;;;;;;;;;;10362518;28;20030;-47
2022/03/22 23:14:32;;;;;;;15.38;5.45;;;;;;;;;;10356871;28;20057;-47
2022/03/22 23:19:32;;;;;;;17.00;7.18;;;;;;;;;;10363297;28;20041;-47
2022/03/22 23:24:33;;;;;;;18.30;5.90;;;;;;;;;;10349168;28;20391;-47
2022/03/22 23:29:34;;;;;;;13.88;6.88;;;;;;;;;;10360521;28;20037;-47
2022/03/22 23:34:35;;;;;;;12.90;5.85;;;;;;;;;;10363603;28;20462;-47
2022/03/22 23:39:36;;;;;;;12.75;6.13;;;;;;;;;;10368019;28;20413;-47
2022/03/22 23:44:36;;;;;;;19.50;6.30;;;;;;;;;;10358292;28;20041;-47
2022/03/22 23:49:38;;;;;;;18.13;5.53;;;;;;;;;;10367246;28;20105;-46
2022/03/22 23:54:39;;;;;;;11.23;6.20;;;;;;;;;;10363234;28;20038;-46
2022/03/22 23:59:39;;;;;;;11.25;5.65;;;;;;;;;;10368693;28;20053;-46
